createdAt,value
2023-01-30T00:04:16.840Z,43.20
2023-01-30T00:09:29.164Z,38.33
2023-01-30T00:14:30.965Z,41.70
2023-01-30T00:19:32.819Z,41.53
2023-01-30T00:24:34.693Z,38.97
2023-01-30T00:29:36.523Z,43.67
2023-01-30T00:34:49.097Z,40.97
2023-01-30T00:39:52.127Z,42.97
2023-01-30T00:45:25.886Z,41.97
2023-01-30T00:50:42.759Z,40.00
2023-01-30T00:55:53.369Z,46.80
2023-01-30T01:01:10.451Z,39.90
2023-01-30T01:06:16.457Z,39.93
2023-01-30T01:11:27.766Z,51.83
2023-01-30T01:16:45.029Z,43.60
2023-01-30T01:21:52.636Z,40.20
2023-01-30T01:27:04.245Z,47.07
2023-01-30T01:32:06.190Z,44.93
2023-01-30T01:37:21.367Z,50.70
2023-01-30T01:42:33.658Z,46.20
2023-01-30T01:47:40.643Z,53.63
2023-01-30T01:52:46.461Z,54.57
2023-01-30T01:57:58.013Z,48.50
2023-01-30T02:03:14.736Z,51.17
2023-01-30T02:08:44.051Z,43.70
2023-01-30T02:13:55.746Z,46.90
2023-01-30T02:19:03.165Z,52.13
2023-01-30T02:24:19.233Z,47.43
2023-01-30T02:30:13.069Z,46.27
2023-01-30T02:35:54.070Z,45.07
2023-01-30T02:41:37.962Z,48.50
2023-01-30T02:47:03.417Z,43.40
2023-01-30T02:52:34.998Z,43.13
2023-01-30T02:58:00.478Z,46.37
2023-01-30T03:03:28.351Z,46.47
2023-01-30T03:08:48.507Z,48.03
2023-01-30T03:13:59.253Z,48.60
2023-01-30T03:19:07.167Z,60.80
2023-01-30T03:24:11.269Z,57.40
2023-01-30T03:29:15.355Z,56.77
2023-01-30T03:34:17.477Z,56.23
2023-01-30T03:39:30.950Z,60.40
2023-01-30T03:44:38.545Z,60.77
2023-01-30T03:49:40.627Z,55.60
2023-01-30T04:00:37.529Z,55.60
2023-01-30T04:05:49.933Z,54.47
2023-01-30T04:10:51.804Z,53.50
2023-01-30T04:16:26.912Z,53.53
2023-01-30T04:21:44.787Z,51.73
2023-01-30T04:26:54.576Z,50.63
2023-01-30T04:32:22.102Z,53.27
2023-01-30T04:37:33.027Z,51.23
2023-01-30T04:42:40.368Z,46.37
2023-01-30T04:47:57.508Z,45.80
2023-01-30T04:53:21.411Z,45.00
2023-01-30T04:58:24.361Z,42.30
2023-01-30T05:03:31.893Z,37.07
2023-01-30T05:13:53.752Z,36.67
2023-01-30T05:19:00.034Z,31.40
2023-01-30T05:24:05.167Z,30.67
2023-01-30T05:29:18.199Z,30.13
2023-01-30T05:34:29.878Z,27.93
2023-01-30T05:39:41.895Z,26.40
2023-01-30T05:44:43.745Z,30.27
2023-01-30T05:49:50.956Z,25.23
2023-01-30T05:54:53.129Z,21.87
2023-01-30T06:00:02.977Z,20.23
2023-01-30T06:05:07.532Z,20.63
2023-01-30T06:10:12.364Z,17.33
2023-01-30T06:15:22.723Z,13.07
2023-01-30T06:20:29.711Z,11.83
2023-01-30T06:25:33.467Z,13.77
2023-01-30T06:30:41.320Z,4.87
2023-01-30T06:36:01.901Z,7.57
2023-01-30T06:41:05.898Z,7.53
2023-01-30T06:46:14.094Z,10.93
2023-01-30T06:51:26.248Z,7.83
2023-01-30T06:56:31.457Z,10.27
2023-01-30T07:01:41.714Z,8.17
2023-01-30T07:06:53.976Z,5.10
2023-01-30T07:12:02.258Z,5.93
2023-01-30T07:17:20.523Z,11.87
2023-01-30T07:22:53.040Z,7.03
2023-01-30T07:28:15.880Z,10.90
2023-01-30T07:33:32.124Z,5.07
2023-01-30T07:38:40.871Z,12.90
2023-01-30T07:43:49.085Z,8.47
2023-01-30T07:49:09.852Z,9.37
2023-01-30T07:54:14.684Z,13.93
2023-01-30T07:59:32.951Z,11.73
2023-01-30T08:04:51.674Z,10.03
2023-01-30T08:10:18.265Z,8.37
2023-01-30T08:26:25.639Z,13.27
2023-01-30T08:32:10.722Z,12.67
2023-01-30T08:37:29.359Z,16.53
2023-01-30T08:42:39.647Z,12.93
2023-01-30T08:48:03.943Z,12.07
2023-01-30T08:53:42.704Z,10.17
2023-01-30T09:04:51.559Z,13.50
2023-01-30T09:15:22.221Z,11.57
2023-01-30T09:20:29.128Z,12.23
2023-01-30T09:25:41.094Z,12.97
2023-01-30T09:30:43.012Z,14.00
2023-01-30T09:36:23.083Z,13.77
2023-01-30T09:42:21.541Z,17.37
2023-01-30T09:48:18.236Z,19.37
2023-01-30T09:54:44.241Z,15.50
2023-01-30T10:00:09.027Z,8.40
2023-01-30T10:05:40.134Z,12.07
2023-01-30T10:11:10.223Z,9.43
2023-01-30T10:16:35.813Z,15.67
2023-01-30T10:22:11.031Z,16.60
2023-01-30T10:27:27.314Z,11.33
2023-01-30T10:32:58.973Z,12.50
2023-01-30T10:38:40.357Z,9.57
2023-01-30T10:44:10.767Z,8.77
2023-01-30T10:49:45.854Z,16.97
2023-01-30T10:55:11.814Z,9.00
2023-01-30T11:00:59.862Z,13.17
2023-01-30T11:06:50.220Z,12.63
2023-01-30T11:12:02.375Z,12.83
2023-01-30T11:17:17.523Z,14.83
2023-01-30T11:22:33.481Z,14.63
2023-01-30T11:27:50.814Z,14.43
2023-01-30T11:33:14.259Z,10.13
2023-01-30T11:44:23.535Z,10.93
2023-01-30T11:49:48.247Z,14.63
2023-01-30T11:55:17.720Z,15.93
2023-01-30T12:00:35.513Z,10.27
2023-01-30T12:05:51.012Z,12.70
2023-01-30T12:11:29.222Z,12.00
2023-01-30T12:16:56.957Z,15.47
2023-01-30T12:22:26.216Z,12.27
2023-01-30T12:27:51.452Z,16.23
2023-01-30T12:32:59.143Z,21.63
2023-01-30T12:38:25.898Z,11.30
2023-01-30T12:44:02.564Z,16.77
2023-01-30T12:49:17.184Z,12.30
2023-01-30T12:54:53.803Z,10.93
2023-01-30T13:00:17.766Z,9.73
2023-01-30T13:05:41.309Z,13.90
2023-01-30T13:10:56.401Z,13.73
2023-01-30T13:22:17.648Z,14.00
2023-01-30T13:33:34.511Z,8.47
2023-01-30T13:38:50.827Z,10.80
2023-01-30T13:44:01.210Z,9.20
2023-01-30T13:55:07.656Z,6.87
2023-01-30T14:00:27.618Z,3.77
2023-01-30T14:05:55.526Z,2.13
2023-01-30T14:11:34.773Z,6.63
2023-01-30T14:16:58.629Z,5.07
2023-01-30T14:22:37.940Z,8.30
2023-01-30T14:28:37.416Z,4.20
2023-01-30T14:33:41.087Z,4.33
2023-01-30T14:39:29.024Z,9.60
2023-01-30T14:45:46.688Z,4.90
2023-01-30T14:50:54.222Z,8.40
2023-01-30T14:56:20.538Z,6.80
2023-01-30T15:01:29.983Z,8.60
2023-01-30T15:13:01.226Z,13.73
2023-01-30T15:19:05.654Z,10.97
2023-01-30T15:25:23.881Z,8.13
2023-01-30T15:30:47.725Z,12.57
2023-01-30T15:35:56.062Z,14.37
2023-01-30T15:41:18.424Z,15.77
2023-01-30T15:52:31.737Z,14.40
2023-01-30T16:03:46.332Z,30.70
2023-01-30T16:09:24.846Z,19.70
2023-01-30T16:14:29.842Z,15.27
2023-01-30T16:19:47.818Z,10.30
2023-01-30T16:30:27.817Z,14.17
2023-01-30T16:36:08.233Z,12.40
2023-01-30T16:41:59.828Z,14.00
2023-01-30T16:47:45.616Z,13.93
2023-01-30T16:52:56.061Z,11.67
2023-01-30T16:58:30.525Z,17.87
2023-01-30T17:03:43.162Z,15.33
2023-01-30T17:09:43.519Z,13.07
2023-01-30T17:14:48.423Z,16.97
2023-01-30T17:19:53.628Z,27.00
2023-01-30T17:30:41.753Z,14.03
2023-01-30T17:35:48.784Z,12.63
2023-01-30T17:40:55.455Z,16.57
2023-01-30T17:45:57.747Z,14.20
2023-01-30T17:51:19.212Z,12.33
2023-01-30T17:56:42.556Z,18.27
2023-01-30T18:01:55.622Z,20.37
2023-01-30T18:07:17.234Z,17.17
2023-01-30T18:12:47.573Z,12.23
2023-01-30T18:30:48.321Z,12.50
2023-01-30T18:48:47.095Z,10.33
2023-01-30T18:54:25.934Z,18.03
2023-01-30T18:59:40.713Z,17.80
2023-01-30T19:04:44.950Z,23.27
2023-01-30T19:10:11.990Z,23.87
2023-01-30T19:15:45.081Z,22.20
2023-01-30T19:20:49.127Z,26.00
2023-01-30T19:26:10.851Z,16.00
2023-01-30T19:31:52.479Z,16.23
2023-01-30T19:43:42.599Z,15.50
2023-01-30T19:49:13.353Z,16.47
2023-01-30T19:54:23.083Z,15.67
2023-01-30T20:00:18.303Z,23.20
2023-01-30T20:05:35.927Z,12.37
2023-01-30T20:11:07.566Z,12.47
2023-01-30T20:16:41.517Z,16.07
2023-01-30T20:21:58.556Z,17.17
2023-01-30T20:27:36.563Z,16.43
2023-01-30T20:33:17.841Z,10.50
2023-01-30T20:38:47.974Z,20.30
2023-01-30T20:44:48.739Z,24.63
2023-01-30T20:50:25.145Z,17.73
2023-01-30T20:55:39.610Z,17.70
2023-01-30T21:00:45.577Z,28.03
2023-01-30T21:06:00.561Z,21.13
2023-01-30T21:11:15.711Z,24.87
2023-01-30T21:16:43.120Z,18.07
2023-01-30T21:22:04.573Z,21.50
2023-01-30T21:27:08.145Z,17.07
2023-01-30T21:32:15.415Z,26.83
2023-01-30T21:37:38.258Z,24.30
2023-01-30T21:43:03.024Z,12.43
2023-01-30T21:48:16.693Z,19.90
2023-01-30T21:53:23.976Z,13.63
2023-01-30T21:58:30.255Z,20.37
2023-01-30T22:03:37.023Z,19.30
2023-01-30T22:08:42.120Z,14.77
2023-01-30T22:13:51.352Z,18.10
2023-01-30T22:18:57.326Z,14.20
2023-01-30T22:24:08.384Z,21.23
2023-01-30T22:29:17.221Z,16.97
2023-01-30T22:34:24.587Z,20.73
2023-01-30T22:39:26.679Z,13.93
2023-01-30T22:44:55.325Z,16.80
2023-01-30T22:49:59.551Z,22.17
2023-01-30T22:55:46.328Z,16.00
2023-01-30T23:00:48.414Z,14.57
2023-01-30T23:06:03.389Z,10.80
2023-01-30T23:11:16.087Z,17.30
2023-01-30T23:16:32.609Z,13.07
2023-01-30T23:21:48.779Z,17.43
2023-01-30T23:26:54.818Z,14.87
2023-01-30T23:32:00.729Z,18.63
2023-01-30T23:37:07.173Z,10.90
2023-01-30T23:42:14.568Z,19.43
2023-01-30T23:47:25.958Z,16.10
2023-01-30T23:52:31.046Z,16.63
2023-01-30T23:57:32.786Z,13.53
